West Union, SC (29696)

03:17 AM EDT del 31 Luglio 2016 (GMT -0400)
Walhalla (Library) | | Change Station

Alt. 1060 ft 34.76 °N, 83.07 °W | Updated 53 seconds ago

Clear
Sereno
71.2 °F
Sembra 71.2 °F
N
0.0
Vento Variabile Vento da Nord

Oggi
Massima -- | Minima -- °F
--% Possibilità di precip.
Ieri
Massima -- | Minima -- °F
Precip. -- in
Pressione 29.99 in
Visibilità 10.0 miglia
Nuvole Sereno
Punto di rugiada 71 °F
Umidità 99%
Piovosità 0.00 in
Spessore del manto nevoso Non disponibile.
6:41 AM 8:34 PM
Luna calante, 8% visible
METAR KCEU 310654Z AUTO 33003KT 10SM CLR 25/22 A3002 RMK AO2 SLP154 T02500217
Pressione 29.99 in
Visibilità 10.0 miglia
Nuvole Sereno
Punto di rugiada 71 °F
Umidità 99%
Piovosità 0.00 in
Spessore del manto nevoso Non disponibile.
6:41 AM 8:34 PM
Luna calante, 8% visible
METAR KCEU 310654Z AUTO 33003KT 10SM CLR 25/22 A3002 RMK AO2 SLP154 T02500217

10-Day Weather Forecast

Almanac

Astronomia

Jul. 31, 2016 Alba Tramonto
Ora attuale
Crepuscolo civile
Crepuscolo nautico
Crepuscolo astronomico
Luna
Estensione della luce visibile
Lunghezza del giorno
Tomorrow will be .
, % of the Moon is Illuminated

Gli estremi di oggi

State Highs State Lows

Community

WunderPhotos

Upload Photos

1,928,768 foto caricate!

WunderBlog® & News

Nearby

Qualità dell'aria

  Qualità dell'aria Indice AQ Inquinante
Not available.

Profondità neve

Stazione Profondità Altitudine

Attività sismica

Città  Distanza Mag. Data & Ora
Minimo Magnitudo Mostrato è 2.5.

Temperature delle acque costiere

Località Temperatura

Stations

Stazioni meteo nelle vicinanze

Ubicazione della stazione Temp. Raffreddamento del vento Punto di rugiada Umidità Vento Precip. Alt. Aggiornato Tipo
                   

Watches & Warnings

There are currently no watches in effect.